createdAt,value
2017-12-28T03:10:49.541Z,4.00
2017-12-28T03:13:17.865Z,3.89
2017-12-28T03:15:45.385Z,3.91
2017-12-28T03:18:12.895Z,3.87
2017-12-28T03:20:40.400Z,3.85
2017-12-28T03:23:07.909Z,3.88
2017-12-28T03:25:35.426Z,3.86
2017-12-28T03:28:02.957Z,3.87
2017-12-28T03:30:30.461Z,3.83
2017-12-28T03:32:57.975Z,3.86
2017-12-28T03:35:25.508Z,3.80
2017-12-28T03:37:53.028Z,3.79
2017-12-28T03:40:20.542Z,3.75
2017-12-28T03:42:48.049Z,3.76
2017-12-28T03:45:15.556Z,3.75
2017-12-28T03:47:43.061Z,3.81
2017-12-28T03:50:10.580Z,3.83
2017-12-28T03:52:38.092Z,3.83
2017-12-28T03:55:05.606Z,3.83
2017-12-28T03:57:33.125Z,3.79
2017-12-28T04:00:00.639Z,3.80
2017-12-28T04:02:28.144Z,3.78
2017-12-28T04:04:55.659Z,3.71
2017-12-28T04:07:23.172Z,3.73
2017-12-28T04:09:50.692Z,3.68
2017-12-28T04:12:18.223Z,3.71
2017-12-28T04:14:45.745Z,3.70
2017-12-28T04:17:13.265Z,3.68
2017-12-28T04:19:40.771Z,3.74
2017-12-28T04:22:08.277Z,3.77
2017-12-28T04:24:35.803Z,3.77
2017-12-28T04:27:03.331Z,3.74
2017-12-28T04:29:30.853Z,3.79
2017-12-28T04:31:58.352Z,3.77
2017-12-28T04:34:25.862Z,3.78
2017-12-28T04:36:53.373Z,3.73
2017-12-28T04:39:20.883Z,3.76
2017-12-28T04:41:48.393Z,3.81
2017-12-28T04:44:15.904Z,3.78
2017-12-28T04:46:43.400Z,3.73
2017-12-28T04:49:10.906Z,3.68
2017-12-28T04:51:38.418Z,3.72
2017-12-28T04:54:05.927Z,3.76
2017-12-28T04:56:33.431Z,3.72
2017-12-28T04:59:00.944Z,3.77
2017-12-28T05:01:28.453Z,3.79
2017-12-28T05:03:55.963Z,3.79
2017-12-28T05:06:23.473Z,3.76
2017-12-28T05:08:50.978Z,3.77
2017-12-28T05:11:18.480Z,3.83
2017-12-28T05:13:45.993Z,3.89
2017-12-28T05:16:13.509Z,3.93
2017-12-28T05:18:41.015Z,3.93
2017-12-28T05:21:08.528Z,3.86
2017-12-28T05:23:36.037Z,3.84
2017-12-28T05:26:03.539Z,3.85
2017-12-28T05:28:31.054Z,3.90
2017-12-28T05:30:58.568Z,3.95
2017-12-28T05:33:26.104Z,3.95
2017-12-28T05:35:53.610Z,3.96
2017-12-28T05:38:21.125Z,3.99
2017-12-28T05:40:48.633Z,3.99
2017-12-28T05:43:16.152Z,4.00
2017-12-28T05:45:43.660Z,4.01
2017-12-28T05:48:11.168Z,4.01
2017-12-28T05:50:38.671Z,3.99
2017-12-28T05:53:06.190Z,4.04
2017-12-28T05:55:33.702Z,4.03
2017-12-28T05:58:01.212Z,3.95
2017-12-28T06:00:28.712Z,3.95
2017-12-28T06:02:56.236Z,3.95
2017-12-28T06:05:23.756Z,3.99
2017-12-28T06:07:51.272Z,3.98
2017-12-28T06:10:18.802Z,4.00
2017-12-28T06:12:46.310Z,4.04
2017-12-28T06:15:13.827Z,4.04
2017-12-28T06:17:41.337Z,4.08
2017-12-28T06:20:08.848Z,4.06
2017-12-28T06:22:36.355Z,4.03
2017-12-28T06:25:03.869Z,4.03
2017-12-28T06:27:31.391Z,4.08
2017-12-28T06:29:58.901Z,4.12
2017-12-28T06:32:26.409Z,4.15
2017-12-28T06:34:53.921Z,4.15
2017-12-28T06:37:21.445Z,4.13
2017-12-28T06:39:48.961Z,4.10
2017-12-28T06:42:16.469Z,4.13
2017-12-28T06:44:43.992Z,4.14
2017-12-28T06:47:11.503Z,4.12
2017-12-28T06:49:39.017Z,4.09
2017-12-28T06:52:06.535Z,4.17
2017-12-28T06:54:34.047Z,4.19
2017-12-28T06:57:01.561Z,4.20
2017-12-28T06:59:29.073Z,4.17
2017-12-28T07:01:56.584Z,4.15
2017-12-28T07:04:24.093Z,4.24
2017-12-28T07:06:51.600Z,4.23
2017-12-28T07:09:19.129Z,4.14
2017-12-28T07:11:46.636Z,4.19
2017-12-28T07:14:14.141Z,4.14
2017-12-28T07:16:41.656Z,4.18
2017-12-28T07:19:09.415Z,4.22
2017-12-28T07:21:37.033Z,4.24
2017-12-28T07:24:04.560Z,4.21
2017-12-28T07:26:32.081Z,4.30
2017-12-28T07:28:59.598Z,4.28
2017-12-28T07:31:27.106Z,4.33
2017-12-28T07:33:54.618Z,4.30
2017-12-28T07:36:22.134Z,4.27
2017-12-28T07:38:49.640Z,4.27
2017-12-28T07:41:17.151Z,4.31
2017-12-28T07:43:44.661Z,4.29
2017-12-28T07:46:12.180Z,4.33
2017-12-28T07:48:39.695Z,4.28
2017-12-28T07:51:07.229Z,4.29
2017-12-28T07:53:34.752Z,4.34
2017-12-28T07:56:02.267Z,4.32
2017-12-28T07:58:29.771Z,4.33
2017-12-28T08:00:57.276Z,4.36
2017-12-28T08:03:24.795Z,4.31
2017-12-28T08:05:52.309Z,4.33
2017-12-28T08:08:19.829Z,4.37
2017-12-28T08:10:47.344Z,4.44
2017-12-28T08:13:14.864Z,4.73
2017-12-28T08:15:42.493Z,4.75
2017-12-28T08:18:10.046Z,4.85
2017-12-28T08:20:37.600Z,4.93
2017-12-28T08:23:05.104Z,5.03
2017-12-28T08:25:32.657Z,5.14
2017-12-28T08:28:00.157Z,5.04
2017-12-28T08:30:30.395Z,5.13
2017-12-28T08:32:57.905Z,5.12
2017-12-28T08:35:25.521Z,5.04
2017-12-28T08:37:53.024Z,4.95
2017-12-28T08:40:20.532Z,5.00
2017-12-28T08:42:48.036Z,4.81
2017-12-28T08:45:15.553Z,4.87
2017-12-28T08:47:43.057Z,4.87
2017-12-28T08:50:10.571Z,4.81
2017-12-28T08:52:38.085Z,4.74
2017-12-28T08:55:05.620Z,4.75
2017-12-28T08:57:33.134Z,4.81
2017-12-28T09:00:00.654Z,4.77
2017-12-28T09:02:28.166Z,4.81
2017-12-28T09:04:55.675Z,4.86
2017-12-28T09:07:23.183Z,4.89
2017-12-28T09:09:50.748Z,4.89
2017-12-28T09:12:18.256Z,4.77
2017-12-28T09:14:45.946Z,4.63
2017-12-28T09:17:13.544Z,4.65
2017-12-28T09:19:41.207Z,4.66
2017-12-28T09:22:08.766Z,4.69
2017-12-28T09:24:36.312Z,4.70
2017-12-28T09:27:03.824Z,4.67
2017-12-28T09:29:31.400Z,4.72
2017-12-28T09:31:58.919Z,4.70
2017-12-28T09:34:26.436Z,4.78
2017-12-28T09:36:53.952Z,4.92
2017-12-28T09:39:21.485Z,4.85
2017-12-28T09:41:48.992Z,5.02
2017-12-28T09:44:16.553Z,4.92
2017-12-28T09:46:44.111Z,4.89
2017-12-28T09:49:11.619Z,5.04
2017-12-28T09:51:39.174Z,5.03
2017-12-28T09:54:06.665Z,5.05
2017-12-28T09:56:34.179Z,4.99
2017-12-28T09:59:01.678Z,5.02
2017-12-28T10:01:29.199Z,5.21
2017-12-28T10:03:56.814Z,5.21
2017-12-28T10:06:24.334Z,5.11
2017-12-28T10:08:51.827Z,5.05
2017-12-28T10:11:19.347Z,5.06
2017-12-28T10:13:46.848Z,5.02
2017-12-28T10:16:14.353Z,5.12
2017-12-28T10:18:41.876Z,5.02
2017-12-28T10:21:09.572Z,5.04
2017-12-28T10:23:37.220Z,5.05
2017-12-28T10:26:04.803Z,5.23
2017-12-28T10:28:32.355Z,5.10
2017-12-28T10:30:59.884Z,5.12
2017-12-28T10:33:27.411Z,5.05
2017-12-28T10:35:54.934Z,5.21
2017-12-28T10:38:22.715Z,5.09
2017-12-28T10:40:50.216Z,5.12
2017-12-28T10:43:17.722Z,5.08
2017-12-28T10:45:45.275Z,5.01
2017-12-28T10:48:12.797Z,4.94
2017-12-28T10:50:40.290Z,4.94
2017-12-28T10:53:07.791Z,5.04
2017-12-28T10:55:35.293Z,4.97
2017-12-28T10:58:02.796Z,5.13
2017-12-28T11:00:30.303Z,4.97
2017-12-28T11:02:57.798Z,4.97
2017-12-28T11:05:25.344Z,5.02
2017-12-28T11:07:52.847Z,5.06
2017-12-28T11:10:20.355Z,5.21
2017-12-28T11:12:47.923Z,5.23
2017-12-28T11:15:15.420Z,5.35
2017-12-28T11:17:42.936Z,5.39
2017-12-28T11:20:10.440Z,5.28
2017-12-28T11:22:37.944Z,5.36
2017-12-28T11:25:05.440Z,5.22
2017-12-28T11:27:32.941Z,5.24
2017-12-28T11:30:00.437Z,5.28
2017-12-28T11:32:27.941Z,5.19
2017-12-28T11:34:55.438Z,5.15
2017-12-28T11:37:22.936Z,5.14
2017-12-28T11:39:50.452Z,5.17
2017-12-28T11:42:17.945Z,5.21
2017-12-28T11:44:45.441Z,5.13
2017-12-28T11:47:12.943Z,5.13
2017-12-28T11:49:40.440Z,5.13
2017-12-28T11:52:07.944Z,5.12
2017-12-28T11:54:41.423Z,5.38
2017-12-28T11:57:13.683Z,5.27
2017-12-28T11:59:41.185Z,5.19
2017-12-28T12:02:09.143Z,5.25
2017-12-28T12:04:42.292Z,5.23
2017-12-28T12:07:12.624Z,5.21
2017-12-28T12:09:45.720Z,5.28
2017-12-28T12:12:13.211Z,5.24
2017-12-28T12:14:40.716Z,5.21
2017-12-28T12:17:08.212Z,5.39
2017-12-28T12:19:35.718Z,5.25
2017-12-28T12:22:03.216Z,5.20
2017-12-28T12:24:30.716Z,5.24
2017-12-28T12:26:58.213Z,5.30
2017-12-28T12:29:25.716Z,5.18
2017-12-28T12:31:53.212Z,5.16
2017-12-28T12:34:20.714Z,5.14
2017-12-28T12:36:48.226Z,5.42
2017-12-28T12:39:15.741Z,5.69
2017-12-28T12:41:43.264Z,5.81
2017-12-28T12:44:10.756Z,5.74
2017-12-28T12:46:38.264Z,5.64
2017-12-28T12:49:05.770Z,5.66
2017-12-28T12:51:33.280Z,5.46
2017-12-28T12:54:00.791Z,5.50
2017-12-28T12:56:28.300Z,5.42
2017-12-28T12:58:55.805Z,5.42
2017-12-28T13:01:23.302Z,5.33
2017-12-28T13:03:50.812Z,5.37
2017-12-28T13:06:18.313Z,5.34
2017-12-28T13:08:45.812Z,5.37
2017-12-28T13:11:13.308Z,5.44
2017-12-28T13:13:40.816Z,5.40
2017-12-28T13:16:08.316Z,5.44
2017-12-28T13:18:35.811Z,5.55
2017-12-28T13:21:03.312Z,5.38
2017-12-28T13:23:30.813Z,5.45
2017-12-28T13:25:58.322Z,5.35
2017-12-28T13:28:25.831Z,5.41
2017-12-28T13:30:53.344Z,5.37
2017-12-28T13:33:20.856Z,5.42
2017-12-28T13:35:48.361Z,5.34
2017-12-28T13:38:15.875Z,5.42
2017-12-28T13:40:43.408Z,5.37
2017-12-28T13:43:10.944Z,5.33
2017-12-28T13:45:38.470Z,5.45
2017-12-28T13:48:05.981Z,5.43
2017-12-28T13:50:33.490Z,5.36
2017-12-28T13:53:01.004Z,5.39
2017-12-28T13:55:28.503Z,5.38
2017-12-28T13:57:56.001Z,5.31
2017-12-28T14:00:23.514Z,5.36
2017-12-28T14:02:51.016Z,5.44
2017-12-28T14:05:18.516Z,5.40
2017-12-28T14:07:46.046Z,5.38
2017-12-28T14:10:13.563Z,5.36
2017-12-28T14:12:41.091Z,5.39
2017-12-28T14:15:08.605Z,5.42
2017-12-28T14:17:36.107Z,5.39
2017-12-28T14:20:03.611Z,5.40
2017-12-28T14:22:31.117Z,5.40
2017-12-28T14:24:58.631Z,5.42
2017-12-28T14:27:26.141Z,5.38
2017-12-28T14:29:53.663Z,5.38
2017-12-28T14:32:21.164Z,5.41
2017-12-28T14:34:48.676Z,5.49
2017-12-28T14:37:16.176Z,5.51
2017-12-28T14:39:43.685Z,5.38
2017-12-28T14:42:11.193Z,5.31
2017-12-28T14:44:38.691Z,5.41
2017-12-28T14:47:06.196Z,5.41
2017-12-28T14:49:33.716Z,5.38
2017-12-28T14:52:01.212Z,5.38
2017-12-28T14:54:28.707Z,5.31
2017-12-28T14:56:56.214Z,5.37
2017-12-28T14:59:23.722Z,5.28
2017-12-28T15:01:51.224Z,5.24
2017-12-28T15:04:18.727Z,5.29
2017-12-28T15:06:46.236Z,5.28
2017-12-28T15:09:13.740Z,5.22
2017-12-28T15:11:41.252Z,5.23
2017-12-28T15:14:08.756Z,5.15
2017-12-28T15:16:36.270Z,5.15
2017-12-28T15:19:03.813Z,5.17
2017-12-28T15:21:31.296Z,5.04
2017-12-28T15:23:58.828Z,5.03
2017-12-28T15:26:26.340Z,4.99
2017-12-28T15:28:53.851Z,4.90
2017-12-28T15:31:21.408Z,4.94
2017-12-28T15:33:48.911Z,4.90
2017-12-28T15:36:16.416Z,4.83
2017-12-28T15:38:43.920Z,4.80
2017-12-28T15:41:11.427Z,4.69
2017-12-28T15:43:38.945Z,4.70
2017-12-28T15:46:06.452Z,4.64
2017-12-28T15:48:33.957Z,4.60
2017-12-28T15:51:01.467Z,4.56
2017-12-28T15:53:28.964Z,4.51
2017-12-28T15:55:56.476Z,4.43
2017-12-28T15:58:23.976Z,4.40
2017-12-28T16:00:51.472Z,4.37
2017-12-28T16:03:18.967Z,4.37
2017-12-28T16:05:46.488Z,4.30
2017-12-28T16:08:14.016Z,4.27
2017-12-28T16:10:41.528Z,4.19
2017-12-28T16:13:09.041Z,4.21
2017-12-28T16:15:36.557Z,4.15
2017-12-28T16:18:04.060Z,4.15
2017-12-28T16:20:31.563Z,4.11
2017-12-28T16:22:59.064Z,4.12
2017-12-28T16:25:26.568Z,4.08
2017-12-28T16:27:54.152Z,4.03
2017-12-28T16:30:21.697Z,4.03
2017-12-28T16:32:49.271Z,4.00
2017-12-28T16:35:16.842Z,3.94
2017-12-28T16:37:44.352Z,3.93
2017-12-28T16:40:11.878Z,3.94
2017-12-28T16:42:39.384Z,3.96
2017-12-28T16:45:06.973Z,3.94
2017-12-28T16:47:34.533Z,3.94
2017-12-28T16:50:02.062Z,3.94
2017-12-28T16:52:29.615Z,3.94
2017-12-28T16:54:57.800Z,3.91
2017-12-28T16:57:25.324Z,3.89
2017-12-28T16:59:52.857Z,3.90
2017-12-28T17:02:20.406Z,3.88
2017-12-28T17:04:47.912Z,3.84
2017-12-28T17:07:15.508Z,3.82
2017-12-28T17:09:43.010Z,3.80
2017-12-28T17:12:10.645Z,3.82
2017-12-28T17:14:38.615Z,3.81
2017-12-28T17:17:06.142Z,3.76
2017-12-28T17:19:33.670Z,3.76
2017-12-28T17:22:01.180Z,3.75
2017-12-28T17:24:28.692Z,3.74
2017-12-28T17:26:56.195Z,3.75
2017-12-28T17:29:23.717Z,3.74
2017-12-28T17:31:51.222Z,3.72
2017-12-28T17:34:18.729Z,3.69
2017-12-28T17:36:46.234Z,3.65
2017-12-28T17:39:13.735Z,3.62
2017-12-28T17:41:41.236Z,3.59
2017-12-28T17:44:08.766Z,3.57
2017-12-28T17:46:36.282Z,3.54
2017-12-28T17:49:03.805Z,3.52
2017-12-28T17:51:31.316Z,3.49
2017-12-28T17:53:58.826Z,3.45
2017-12-28T17:56:26.362Z,3.48
2017-12-28T17:58:53.986Z,3.47
2017-12-28T18:01:21.504Z,3.46
2017-12-28T18:03:49.094Z,3.49
2017-12-28T18:06:16.625Z,3.52
2017-12-28T18:08:44.145Z,3.57
2017-12-28T18:11:11.645Z,3.62
2017-12-28T18:13:40.081Z,3.66
2017-12-28T18:16:07.619Z,3.72
2017-12-28T18:18:35.160Z,3.73
2017-12-28T18:21:02.706Z,3.78
2017-12-28T18:23:30.218Z,3.83
2017-12-28T18:25:57.716Z,3.87
2017-12-28T18:28:25.236Z,3.87
2017-12-28T18:30:52.781Z,3.87
2017-12-28T18:33:20.312Z,3.75
2017-12-28T18:35:47.819Z,3.75
2017-12-28T18:38:15.331Z,3.70
2017-12-28T18:40:42.829Z,3.66
2017-12-28T18:43:10.332Z,3.62
2017-12-28T18:45:37.848Z,3.56
2017-12-28T18:48:05.349Z,3.48
2017-12-28T18:50:32.862Z,3.44
2017-12-28T18:53:00.375Z,3.40
2017-12-28T18:55:28.107Z,3.38
2017-12-28T18:57:55.632Z,3.34
2017-12-28T19:00:23.140Z,3.29
2017-12-28T19:02:50.649Z,3.25
2017-12-28T19:05:18.152Z,3.22
2017-12-28T19:07:45.776Z,3.18
2017-12-28T19:10:13.283Z,3.14
2017-12-28T19:12:40.797Z,3.11
2017-12-28T19:15:08.377Z,3.13
2017-12-28T19:17:35.886Z,3.12
2017-12-28T19:20:03.393Z,3.10
2017-12-28T19:22:30.964Z,3.09
2017-12-28T19:24:58.558Z,3.10
2017-12-28T19:27:26.077Z,3.11
2017-12-28T19:29:53.584Z,3.10
2017-12-28T19:32:21.090Z,3.09
2017-12-28T19:34:48.718Z,3.07
2017-12-28T19:37:16.242Z,3.07
2017-12-28T19:39:43.753Z,3.07
2017-12-28T19:42:11.287Z,3.07
2017-12-28T19:44:38.787Z,3.06
2017-12-28T19:47:06.293Z,3.13
2017-12-28T19:49:33.796Z,3.18
2017-12-28T19:52:01.292Z,3.21
2017-12-28T19:54:28.836Z,3.23
2017-12-28T19:56:56.344Z,3.29
2017-12-28T19:59:23.844Z,3.33
2017-12-28T20:01:51.362Z,3.37
2017-12-28T20:04:18.869Z,3.41
2017-12-28T20:06:46.527Z,3.44
2017-12-28T20:09:14.024Z,3.49
2017-12-28T20:11:41.556Z,3.50
2017-12-28T20:14:09.109Z,3.49
2017-12-28T20:16:36.616Z,3.51
2017-12-28T20:19:04.192Z,3.58
2017-12-28T20:21:31.696Z,3.57
2017-12-28T20:23:59.224Z,3.58
2017-12-28T20:26:26.752Z,3.64
2017-12-28T20:28:54.264Z,3.63
2017-12-28T20:31:21.777Z,3.64
2017-12-28T20:33:49.346Z,3.67
2017-12-28T20:36:16.856Z,3.72
2017-12-28T20:38:44.368Z,3.69
2017-12-28T20:41:11.878Z,3.68
2017-12-28T20:43:39.459Z,3.69
2017-12-28T20:46:07.037Z,3.69
2017-12-28T20:48:34.562Z,3.67
2017-12-28T20:51:02.085Z,3.71
2017-12-28T20:53:29.600Z,3.67
2017-12-28T20:55:57.105Z,3.69
2017-12-28T20:58:24.613Z,3.63
2017-12-28T21:00:52.122Z,3.63
2017-12-28T21:03:19.647Z,3.57
2017-12-28T21:05:47.173Z,3.59
2017-12-28T21:08:14.689Z,3.56
2017-12-28T21:10:42.187Z,3.59
2017-12-28T21:13:09.701Z,3.57
2017-12-28T21:15:37.203Z,3.58
2017-12-28T21:18:04.803Z,3.62
2017-12-28T21:20:32.322Z,3.59
2017-12-28T21:22:59.828Z,3.64
2017-12-28T21:25:27.336Z,3.68
2017-12-28T21:27:54.849Z,3.71
2017-12-28T21:30:22.356Z,3.69
2017-12-28T21:32:49.871Z,3.74
2017-12-28T21:35:17.383Z,3.73
2017-12-28T21:37:44.906Z,3.74
2017-12-28T21:40:12.417Z,3.74
2017-12-28T21:42:39.921Z,3.73
2017-12-28T21:45:07.442Z,3.73
2017-12-28T21:47:34.952Z,3.72
2017-12-28T21:50:02.468Z,3.73
2017-12-28T21:52:29.978Z,3.75
2017-12-28T21:54:57.506Z,3.74
2017-12-28T21:57:25.027Z,3.79
2017-12-28T21:59:52.545Z,3.85
2017-12-28T22:02:20.070Z,3.83
2017-12-28T22:04:47.584Z,3.83
2017-12-28T22:07:15.096Z,3.88
2017-12-28T22:09:42.611Z,3.88
2017-12-28T22:12:10.116Z,3.88
2017-12-28T22:14:37.633Z,3.88
2017-12-28T22:17:05.144Z,3.90
2017-12-28T22:19:32.649Z,3.91
2017-12-28T22:22:00.157Z,3.87
2017-12-28T22:24:27.728Z,3.91
2017-12-28T22:26:55.248Z,3.88
2017-12-28T22:29:22.751Z,3.88
2017-12-28T22:31:50.269Z,3.90
2017-12-28T22:34:17.789Z,3.81
2017-12-28T22:36:45.353Z,3.81
2017-12-28T22:39:12.868Z,3.83
2017-12-28T22:41:40.381Z,3.82
2017-12-28T22:44:07.953Z,3.78
2017-12-28T22:46:35.461Z,3.84
2017-12-28T22:49:02.980Z,3.82
2017-12-28T22:51:30.496Z,3.82
2017-12-28T22:53:58.113Z,3.81
2017-12-28T22:56:26.835Z,3.82
2017-12-28T22:58:54.350Z,3.85
2017-12-28T23:01:22.796Z,3.83
2017-12-28T23:03:50.301Z,3.85
2017-12-28T23:06:17.811Z,3.86
2017-12-28T23:08:45.391Z,3.84
2017-12-28T23:11:12.893Z,3.83
2017-12-28T23:13:40.444Z,3.84
2017-12-28T23:16:07.952Z,3.87
2017-12-28T23:18:35.470Z,3.82
2017-12-28T23:21:03.060Z,3.89
2017-12-28T23:23:30.581Z,3.89
2017-12-28T23:25:58.091Z,3.90
2017-12-28T23:28:25.635Z,3.88
2017-12-28T23:30:53.196Z,3.89
2017-12-28T23:33:20.714Z,3.89
2017-12-28T23:35:48.229Z,3.87
2017-12-28T23:38:15.760Z,3.91
2017-12-28T23:40:43.263Z,3.85
2017-12-28T23:43:10.765Z,3.83
2017-12-28T23:45:38.277Z,3.85
2017-12-28T23:48:05.780Z,3.84
2017-12-28T23:50:33.338Z,3.80
2017-12-28T23:53:00.864Z,3.78
2017-12-28T23:55:28.359Z,3.80
2017-12-28T23:57:55.873Z,3.71
